createdAt,value
2023-08-27T00:05:14.777Z,18.23
2023-08-27T00:29:49.609Z,18.58
2023-08-27T00:32:25.317Z,17.08
2023-08-27T00:47:07.076Z,18.80
2023-08-27T00:49:34.449Z,18.88
2023-08-27T00:52:03.417Z,15.90
2023-08-27T00:54:31.469Z,18.05
2023-08-27T01:20:50.750Z,17.40
2023-08-27T01:23:18.388Z,18.08
2023-08-27T01:32:58.608Z,15.90
2023-08-27T01:35:26.893Z,15.68
2023-08-27T01:47:25.692Z,16.83
2023-08-27T01:49:53.372Z,16.10
2023-08-27T01:59:08.274Z,15.05
2023-08-27T02:28:29.621Z,15.20
2023-08-27T02:37:46.301Z,15.25
2023-08-27T02:49:41.413Z,15.10
2023-08-27T02:52:10.329Z,15.85
2023-08-27T02:54:37.796Z,14.60
2023-08-27T02:57:12.072Z,15.60
2023-08-27T02:59:39.574Z,15.95
2023-08-27T03:14:59.665Z,15.95
2023-08-27T03:17:27.095Z,14.75
2023-08-27T03:19:54.562Z,15.82
2023-08-27T03:27:36.705Z,15.23
2023-08-27T03:30:08.538Z,15.77
2023-08-27T03:32:36.784Z,14.82
2023-08-27T03:35:04.661Z,12.73
2023-08-27T03:37:32.265Z,15.10
2023-08-27T03:40:01.482Z,14.48
2023-08-27T03:42:33.129Z,13.90
2023-08-27T03:45:04.387Z,15.23
2023-08-27T03:47:32.381Z,15.70
2023-08-27T03:49:59.588Z,14.07
2023-08-27T03:52:27.144Z,14.95
2023-08-27T04:04:23.528Z,15.52
2023-08-27T05:32:49.826Z,16.20
2023-08-27T05:40:56.844Z,14.55
2023-08-27T05:43:25.494Z,15.67
2023-08-27T05:45:52.791Z,15.18
2023-08-27T05:48:20.309Z,15.35
2023-08-27T05:50:47.936Z,16.13
2023-08-27T05:53:16.806Z,15.70
2023-08-27T05:55:45.716Z,15.60
2023-08-27T05:58:13.224Z,16.35
2023-08-27T06:00:40.474Z,18.23
2023-08-27T06:03:07.864Z,15.45
2023-08-27T06:05:35.878Z,16.63
2023-08-27T06:08:08.074Z,16.73
2023-08-27T06:10:36.181Z,15.75
2023-08-27T06:13:04.826Z,15.85
2023-08-27T06:15:35.858Z,16.73
2023-08-27T06:18:04.698Z,14.85
2023-08-27T06:20:33.253Z,15.43
2023-08-27T06:23:07.013Z,16.25
2023-08-27T06:25:36.271Z,17.05
2023-08-27T06:28:05.543Z,17.30
2023-08-27T06:30:33.654Z,16.25
2023-08-27T06:33:04.889Z,16.48
2023-08-27T06:35:33.660Z,15.52
2023-08-27T06:46:55.964Z,13.32
2023-08-27T06:50:39.828Z,11.52
2023-08-27T06:54:25.195Z,11.55
2023-08-27T06:56:52.701Z,11.63
2023-08-27T06:59:47.916Z,11.15
2023-08-27T07:06:30.376Z,11.27
2023-08-27T07:08:57.948Z,11.48
2023-08-27T07:12:22.189Z,10.00
2023-08-27T07:31:50.153Z,10.20
2023-08-27T07:34:43.716Z,9.82
2023-08-27T07:37:14.895Z,11.43
2023-08-27T07:40:10.773Z,11.13
2023-08-27T08:55:27.597Z,11.32
2023-08-27T08:58:03.522Z,10.45
2023-08-27T09:00:32.340Z,10.65
2023-08-27T09:03:04.550Z,9.70
2023-08-27T09:05:39.503Z,9.80
2023-08-27T09:11:29.261Z,9.95
2023-08-27T10:18:01.332Z,3.58
2023-08-27T10:58:48.116Z,3.15
2023-08-27T11:01:23.214Z,3.25
2023-08-27T11:04:03.575Z,3.60
2023-08-27T11:19:46.850Z,3.40
2023-08-27T11:22:20.948Z,3.58
2023-08-27T12:31:54.068Z,6.45
2023-08-27T12:37:33.060Z,3.97
2023-08-27T12:51:20.472Z,4.00
2023-08-27T12:54:07.204Z,3.90
2023-08-27T12:57:07.054Z,4.25
2023-08-27T13:02:48.141Z,3.88
2023-08-27T13:05:29.705Z,4.75
2023-08-27T13:08:03.366Z,4.40
2023-08-27T13:10:44.905Z,5.13
2023-08-27T13:13:17.021Z,4.75
2023-08-27T13:15:44.708Z,4.40
2023-08-27T13:18:14.728Z,4.57
2023-08-27T13:20:42.512Z,5.30
2023-08-27T13:23:10.793Z,4.50
2023-08-27T13:25:45.523Z,4.68
2023-08-27T13:28:15.242Z,5.03
2023-08-27T13:30:42.800Z,4.80
2023-08-27T13:33:31.379Z,4.93
2023-08-27T13:36:04.803Z,5.03
2023-08-27T13:38:33.527Z,5.13
2023-08-27T13:41:01.152Z,4.25
2023-08-27T13:43:33.120Z,5.53
2023-08-27T13:46:06.269Z,5.20
2023-08-27T13:48:36.668Z,4.85
2023-08-27T13:51:08.254Z,5.43
2023-08-27T13:53:38.313Z,4.82
2023-08-27T14:00:31.535Z,4.90
2023-08-27T14:02:59.029Z,5.32
2023-08-27T14:05:27.013Z,5.95
2023-08-27T14:07:55.112Z,5.63
2023-08-27T14:10:25.529Z,5.30
2023-08-27T14:12:59.563Z,4.65
2023-08-27T14:15:33.088Z,4.38
2023-08-27T14:18:01.153Z,6.63
2023-08-27T14:20:30.449Z,5.72
2023-08-27T14:22:58.709Z,5.32
2023-08-27T14:25:30.208Z,4.32
2023-08-27T14:27:58.037Z,5.05
2023-08-27T14:30:37.759Z,5.10
2023-08-27T14:33:46.855Z,5.60
2023-08-27T14:36:59.448Z,4.35
2023-08-27T14:39:43.249Z,4.78
2023-08-27T14:42:17.668Z,4.93
2023-08-27T14:45:07.914Z,4.70
2023-08-27T14:47:57.973Z,4.80
2023-08-27T14:50:35.495Z,4.57
2023-08-27T14:58:56.916Z,5.45
2023-08-27T15:27:08.050Z,4.53
2023-08-27T15:30:55.942Z,4.55
2023-08-27T15:34:11.024Z,4.05
2023-08-27T16:18:34.593Z,4.68
2023-08-27T16:24:36.453Z,5.03
2023-08-27T16:31:28.348Z,4.85
2023-08-27T16:53:30.742Z,5.25
2023-08-27T16:58:50.186Z,5.50
2023-08-27T17:01:20.318Z,4.80
2023-08-27T17:03:50.284Z,5.03
2023-08-27T17:06:17.685Z,5.45
2023-08-27T17:08:45.328Z,5.50
2023-08-27T17:11:35.861Z,5.15
2023-08-27T17:14:07.789Z,5.05
2023-08-27T17:16:41.133Z,5.20
2023-08-27T17:19:14.285Z,5.47
2023-08-27T17:21:48.071Z,5.50
2023-08-27T17:24:17.518Z,5.20
2023-08-27T17:26:45.000Z,6.50
2023-08-27T17:29:12.710Z,6.05
2023-08-27T17:31:40.267Z,5.70
2023-08-27T17:34:37.852Z,5.55
2023-08-27T17:37:08.432Z,5.55
2023-08-27T17:39:36.073Z,5.90
2023-08-27T17:42:08.865Z,5.70
2023-08-27T17:44:39.551Z,5.78
2023-08-27T17:47:10.637Z,5.57
2023-08-27T17:49:41.944Z,5.85
2023-08-27T17:52:13.474Z,5.63
2023-08-27T17:54:45.177Z,6.00
2023-08-27T17:57:20.429Z,6.85
2023-08-27T17:59:55.272Z,6.28
2023-08-27T18:02:24.348Z,6.28
2023-08-27T18:04:54.712Z,5.80
2023-08-27T18:07:25.378Z,7.32
2023-08-27T18:14:26.598Z,7.30
2023-08-27T18:16:54.467Z,8.20
2023-08-27T18:19:21.845Z,8.27
2023-08-27T18:21:53.798Z,8.05
2023-08-27T18:26:24.569Z,7.97
2023-08-27T18:28:54.811Z,8.57
2023-08-27T18:31:22.353Z,9.02
2023-08-27T18:33:50.348Z,7.85
2023-08-27T18:36:18.082Z,8.98
2023-08-27T18:38:45.608Z,8.48
2023-08-27T18:41:13.223Z,8.75
2023-08-27T18:44:32.468Z,8.75
2023-08-27T18:49:27.158Z,9.00
2023-08-27T18:51:57.577Z,9.07
2023-08-27T18:55:15.952Z,8.85
2023-08-27T18:57:15.440Z,9.65
2023-08-27T18:59:42.915Z,9.48
2023-08-27T19:07:16.517Z,9.25
2023-08-27T19:09:47.064Z,9.80
2023-08-27T19:17:12.550Z,9.60
2023-08-27T19:24:28.887Z,9.27
2023-08-27T19:26:56.517Z,9.48
2023-08-27T19:38:29.197Z,10.57
2023-08-27T19:50:26.893Z,11.18
2023-08-27T19:54:57.829Z,10.10
2023-08-27T19:57:28.259Z,10.73
2023-08-27T19:59:55.680Z,10.52
2023-08-27T20:02:31.851Z,10.60
2023-08-27T20:04:59.315Z,10.15
2023-08-27T20:07:28.203Z,10.02
2023-08-27T20:10:01.498Z,10.70
2023-08-27T20:12:31.708Z,10.18
2023-08-27T20:14:59.148Z,10.20
2023-08-27T20:17:51.599Z,10.70
2023-08-27T20:20:19.209Z,9.93
2023-08-27T20:22:46.513Z,10.02
2023-08-27T20:25:13.777Z,10.15
2023-08-27T20:32:30.401Z,9.63
2023-08-27T20:37:21.061Z,9.73
2023-08-27T20:39:50.842Z,9.98
2023-08-27T20:42:18.149Z,9.32
2023-08-27T20:44:47.104Z,10.25
2023-08-27T21:15:42.420Z,8.82
2023-08-27T21:18:10.253Z,8.77
2023-08-27T21:20:37.535Z,9.05
2023-08-27T21:23:05.115Z,9.10
2023-08-27T21:25:32.338Z,8.85
2023-08-27T21:27:59.625Z,8.95
2023-08-27T21:30:52.957Z,9.52
2023-08-27T21:38:05.231Z,8.52
2023-08-27T21:40:39.879Z,9.48
2023-08-27T21:47:37.738Z,9.20
2023-08-27T21:50:05.891Z,9.30
2023-08-27T21:52:33.277Z,10.65
2023-08-27T21:55:00.856Z,11.00
2023-08-27T22:01:59.384Z,11.82
2023-08-27T22:04:27.714Z,11.45
2023-08-27T22:06:54.919Z,12.35
2023-08-27T22:09:24.181Z,12.15
2023-08-27T22:11:54.625Z,11.80
2023-08-27T22:14:21.833Z,11.15
2023-08-27T22:16:49.256Z,11.32
2023-08-27T22:19:23.850Z,11.02
2023-08-27T22:21:51.781Z,11.65
2023-08-27T22:37:58.217Z,14.27
2023-08-27T22:44:51.639Z,12.38
2023-08-27T22:47:18.790Z,11.98
2023-08-27T22:49:45.933Z,12.48
2023-08-27T22:52:13.187Z,12.43
2023-08-27T22:59:19.046Z,12.15
2023-08-27T23:01:46.355Z,12.43
2023-08-27T23:04:13.500Z,12.30
2023-08-27T23:10:59.550Z,14.43
2023-08-27T23:18:22.422Z,12.95
2023-08-27T23:25:20.174Z,12.32
2023-08-27T23:27:47.482Z,12.90
2023-08-27T23:30:15.180Z,12.68
2023-08-27T23:37:17.841Z,13.02
2023-08-27T23:39:44.994Z,12.32
2023-08-27T23:46:45.777Z,12.60
2023-08-27T23:49:15.531Z,11.65
2023-08-27T23:56:14.240Z,11.23
2023-08-27T23:58:41.505Z,10.55
